createdAt,value
2022-11-22T00:01:18.955Z,3.77
2022-11-22T00:03:46.819Z,3.90
2022-11-22T00:06:15.736Z,3.40
2022-11-22T00:08:49.091Z,3.57
2022-11-22T00:11:16.850Z,3.70
2022-11-22T00:13:44.639Z,3.93
2022-11-22T00:16:12.734Z,3.97
2022-11-22T00:18:40.856Z,3.57
2022-11-22T00:21:10.072Z,3.87
2022-11-22T00:23:38.161Z,3.90
2022-11-22T00:26:12.077Z,3.57
2022-11-22T00:28:41.514Z,3.30
2022-11-22T00:31:10.594Z,3.20
2022-11-22T00:33:38.635Z,3.60
2022-11-22T00:36:07.696Z,3.83
2022-11-22T00:38:35.921Z,3.37
2022-11-22T00:41:04.097Z,3.57
2022-11-22T00:43:34.282Z,2.80
2022-11-22T00:46:04.041Z,3.40
2022-11-22T00:48:33.012Z,3.80
2022-11-22T00:51:00.968Z,3.37
2022-11-22T00:53:29.318Z,3.50
2022-11-22T00:56:17.098Z,3.30
2022-11-22T00:58:45.360Z,3.20
2022-11-22T01:01:13.355Z,4.00
2022-11-22T01:03:41.241Z,3.30
2022-11-22T01:06:09.980Z,3.20
2022-11-22T01:08:37.859Z,3.70
2022-11-22T01:11:06.125Z,3.10
2022-11-22T01:13:36.906Z,3.10
2022-11-22T01:16:07.460Z,3.03
2022-11-22T01:18:36.684Z,3.27
2022-11-22T01:21:05.023Z,3.27
2022-11-22T01:23:33.463Z,3.20
2022-11-22T01:26:02.290Z,2.70
2022-11-22T01:28:30.730Z,3.03
2022-11-22T01:31:00.228Z,3.30
2022-11-22T01:33:29.726Z,3.00
2022-11-22T01:35:58.350Z,2.60
2022-11-22T01:38:26.603Z,2.80
2022-11-22T01:40:54.414Z,3.10
2022-11-22T01:43:24.029Z,2.60
2022-11-22T01:45:56.553Z,2.80
2022-11-22T01:51:22.131Z,2.80
2022-11-22T01:53:50.352Z,2.60
2022-11-22T01:56:20.705Z,2.40
2022-11-22T01:58:52.907Z,2.27
2022-11-22T02:01:20.854Z,2.20
2022-11-22T02:03:50.612Z,2.60
2022-11-22T02:06:21.209Z,2.30
2022-11-22T02:08:58.475Z,2.10
2022-11-22T02:11:33.606Z,2.60
2022-11-22T02:14:02.295Z,2.07
2022-11-22T02:16:31.346Z,2.47
2022-11-22T02:18:59.186Z,2.13
2022-11-22T02:21:29.776Z,2.40
2022-11-22T02:24:04.325Z,2.30
2022-11-22T02:26:35.588Z,2.07
2022-11-22T02:29:07.749Z,2.40
2022-11-22T02:31:38.494Z,1.83
2022-11-22T02:34:06.658Z,2.17
2022-11-22T02:36:39.613Z,2.00
2022-11-22T02:39:08.942Z,1.90
2022-11-22T02:41:39.268Z,2.03
2022-11-22T02:44:08.775Z,2.13
2022-11-22T02:46:36.920Z,1.80
2022-11-22T02:49:04.783Z,1.50
2022-11-22T02:51:32.504Z,1.87
2022-11-22T02:54:00.480Z,1.63
2022-11-22T02:56:28.296Z,1.80
2022-11-22T02:58:58.350Z,1.80
2022-11-22T03:01:26.199Z,1.70
2022-11-22T03:03:53.984Z,1.50
2022-11-22T03:06:21.847Z,1.47
2022-11-22T03:08:55.918Z,1.53
2022-11-22T03:11:25.867Z,2.03
2022-11-22T03:13:54.210Z,1.50
2022-11-22T03:16:23.519Z,1.60
2022-11-22T03:18:51.566Z,1.50
2022-11-22T03:21:19.608Z,1.40
2022-11-22T03:23:47.790Z,1.80
2022-11-22T03:26:15.803Z,1.33
2022-11-22T03:28:43.704Z,1.47
2022-11-22T03:31:12.257Z,1.40
2022-11-22T03:33:42.330Z,1.50
2022-11-22T03:36:10.549Z,1.60
2022-11-22T03:38:38.504Z,1.67
2022-11-22T03:41:06.695Z,1.40
2022-11-22T03:43:34.576Z,1.40
2022-11-22T03:46:02.465Z,1.47
2022-11-22T03:48:30.582Z,1.97
2022-11-22T03:51:05.803Z,1.57
2022-11-22T03:53:35.202Z,1.37
2022-11-22T03:56:03.100Z,1.20
2022-11-22T03:58:31.099Z,1.70
2022-11-22T04:00:59.601Z,1.60
2022-11-22T04:03:27.661Z,1.47
2022-11-22T04:05:55.883Z,1.47
2022-11-22T04:08:25.695Z,1.37
2022-11-22T04:10:54.022Z,1.70
2022-11-22T04:13:22.150Z,1.30
2022-11-22T04:15:49.016Z,1.30
2022-11-22T04:18:16.857Z,1.60
2022-11-22T04:21:02.243Z,1.30
2022-11-22T04:23:34.303Z,1.30
2022-11-22T04:26:01.450Z,1.47
2022-11-22T04:29:07.559Z,1.50
2022-11-22T04:31:34.754Z,2.07
2022-11-22T04:34:02.683Z,1.40
2022-11-22T04:36:32.162Z,1.60
2022-11-22T04:39:03.210Z,1.20
2022-11-22T04:41:31.088Z,1.30
2022-11-22T04:44:16.471Z,1.43
2022-11-22T04:46:46.338Z,1.70
2022-11-22T04:49:14.109Z,1.70
2022-11-22T04:51:59.384Z,1.30
2022-11-22T04:54:28.727Z,1.40
2022-11-22T04:56:56.546Z,1.40
2022-11-22T04:59:25.146Z,1.10
2022-11-22T05:01:54.108Z,1.40
2022-11-22T05:04:22.012Z,1.17
2022-11-22T05:06:49.790Z,1.10
2022-11-22T05:09:17.846Z,1.00
2022-11-22T05:11:47.226Z,1.20
2022-11-22T05:14:15.100Z,1.00
2022-11-22T05:16:44.477Z,1.00
2022-11-22T05:19:12.528Z,0.97
2022-11-22T05:21:40.323Z,1.10
2022-11-22T05:24:07.995Z,1.20
2022-11-22T05:26:37.583Z,1.10
2022-11-22T05:29:08.778Z,1.20
2022-11-22T05:31:38.779Z,1.10
2022-11-22T05:34:06.511Z,1.30
2022-11-22T05:36:35.375Z,1.20
2022-11-22T05:39:04.031Z,1.20
2022-11-22T05:41:32.303Z,1.00
2022-11-22T05:44:00.224Z,1.30
2022-11-22T05:46:31.704Z,1.33
2022-11-22T05:49:00.134Z,1.50
2022-11-22T05:51:34.236Z,1.73
2022-11-22T05:54:03.098Z,1.33
2022-11-22T05:56:30.962Z,1.40
2022-11-22T05:58:59.110Z,1.50
2022-11-22T06:01:27.079Z,1.50
2022-11-22T06:03:56.852Z,1.40
2022-11-22T06:06:24.765Z,1.20
2022-11-22T06:08:52.530Z,1.20
2022-11-22T06:11:22.282Z,1.30
2022-11-22T06:13:53.087Z,1.30
2022-11-22T06:16:21.354Z,1.17
2022-11-22T06:18:50.563Z,1.73
2022-11-22T06:21:23.386Z,1.33
2022-11-22T06:23:52.102Z,1.40
2022-11-22T06:26:21.294Z,1.40
2022-11-22T06:28:50.303Z,1.10
2022-11-22T06:31:20.081Z,1.70
2022-11-22T06:33:49.292Z,1.20
2022-11-22T06:36:20.354Z,1.73
2022-11-22T06:38:49.135Z,1.20
2022-11-22T06:41:19.777Z,1.30
2022-11-22T06:43:49.873Z,1.37
2022-11-22T06:46:19.794Z,1.57
2022-11-22T06:48:55.478Z,1.97
2022-11-22T06:51:26.640Z,1.67
2022-11-22T06:53:57.326Z,1.70
2022-11-22T06:56:29.148Z,1.60
2022-11-22T06:58:58.066Z,1.50
2022-11-22T07:01:28.025Z,1.50
2022-11-22T07:03:58.617Z,1.43
2022-11-22T07:06:29.949Z,1.57
2022-11-22T07:08:58.987Z,1.60
2022-11-22T07:11:28.875Z,1.60
2022-11-22T07:14:03.472Z,1.60
2022-11-22T07:16:33.328Z,1.70
2022-11-22T07:19:02.367Z,1.63
2022-11-22T07:21:32.416Z,1.50
2022-11-22T07:24:00.642Z,1.80
2022-11-22T07:26:30.794Z,1.20
2022-11-22T07:28:59.009Z,1.60
2022-11-22T07:31:27.308Z,1.50
2022-11-22T07:33:56.971Z,1.50
2022-11-22T07:36:25.259Z,1.50
2022-11-22T07:38:54.746Z,1.67
2022-11-22T07:41:22.778Z,1.63
2022-11-22T07:43:50.674Z,1.50
2022-11-22T07:46:23.440Z,1.73
2022-11-22T07:48:51.743Z,1.50
2022-11-22T07:51:19.779Z,1.43
2022-11-22T07:53:48.377Z,1.73
2022-11-22T07:56:18.998Z,1.90
2022-11-22T07:58:46.751Z,1.73
2022-11-22T08:01:17.595Z,1.87
2022-11-22T08:03:46.252Z,1.70
2022-11-22T08:06:15.655Z,1.87
2022-11-22T08:08:44.135Z,1.83
2022-11-22T08:11:12.839Z,1.80
2022-11-22T08:13:42.609Z,2.30
2022-11-22T08:16:14.074Z,2.20
2022-11-22T08:18:44.203Z,2.07
2022-11-22T08:21:14.221Z,2.10
2022-11-22T08:23:43.441Z,2.20
2022-11-22T08:26:14.082Z,2.17
2022-11-22T08:28:44.442Z,2.00
2022-11-22T08:31:15.706Z,1.60
2022-11-22T08:33:43.850Z,1.33
2022-11-22T08:36:12.710Z,1.90
2022-11-22T08:38:40.486Z,1.90
2022-11-22T08:41:08.443Z,2.17
2022-11-22T08:43:36.288Z,1.90
2022-11-22T08:46:06.013Z,1.67
2022-11-22T08:48:36.274Z,2.03
2022-11-22T08:51:06.745Z,1.80
2022-11-22T08:53:35.980Z,1.80
2022-11-22T08:56:06.352Z,2.23
2022-11-22T08:58:35.139Z,1.63
2022-11-22T09:01:07.710Z,2.00
2022-11-22T09:03:36.878Z,2.30
2022-11-22T09:09:03.212Z,2.10
2022-11-22T09:11:43.086Z,2.23
2022-11-22T09:14:11.039Z,2.00
2022-11-22T09:16:40.491Z,2.50
2022-11-22T09:19:08.833Z,1.83
2022-11-22T09:21:36.740Z,2.00
2022-11-22T09:24:05.247Z,1.80
2022-11-22T09:26:33.350Z,1.97
2022-11-22T09:29:01.241Z,2.43
2022-11-22T09:31:32.178Z,1.90
2022-11-22T09:34:02.408Z,2.03
2022-11-22T09:36:31.063Z,2.10
2022-11-22T09:39:00.042Z,1.70
2022-11-22T09:41:45.834Z,1.80
2022-11-22T09:44:20.810Z,1.80
2022-11-22T09:46:54.654Z,2.03
2022-11-22T09:49:29.895Z,2.13
2022-11-22T09:52:07.260Z,2.30
2022-11-22T09:54:42.842Z,1.90
2022-11-22T09:57:17.879Z,2.10
2022-11-22T09:59:48.646Z,1.90
2022-11-22T10:02:21.798Z,1.77
2022-11-22T10:04:56.003Z,2.00
2022-11-22T10:07:29.970Z,1.60
2022-11-22T10:10:05.535Z,1.77
2022-11-22T10:12:40.075Z,1.67
2022-11-22T10:15:15.665Z,2.77
2022-11-22T10:17:54.974Z,1.80
2022-11-22T10:20:25.818Z,1.67
2022-11-22T10:22:54.233Z,1.83
2022-11-22T10:25:26.924Z,1.60
2022-11-22T10:28:01.090Z,1.70
2022-11-22T10:30:34.733Z,2.20
2022-11-22T10:33:14.214Z,1.97
2022-11-22T10:36:08.189Z,1.63
2022-11-22T10:39:17.432Z,2.87
2022-11-22T10:41:59.010Z,1.70
2022-11-22T10:44:36.799Z,1.30
2022-11-22T10:47:17.003Z,1.73
2022-11-22T10:49:57.044Z,1.70
2022-11-22T10:52:35.747Z,1.50
2022-11-22T10:55:19.337Z,1.50
2022-11-22T10:57:56.761Z,1.83
2022-11-22T11:00:26.069Z,1.43
2022-11-22T11:03:04.993Z,1.97
2022-11-22T11:06:00.789Z,2.00
2022-11-22T11:09:12.160Z,1.53
2022-11-22T11:11:30.084Z,1.43
2022-11-22T11:14:01.192Z,1.87
2022-11-22T11:16:32.952Z,1.73
2022-11-22T11:19:08.894Z,1.20
2022-11-22T11:21:37.299Z,1.70
2022-11-22T11:24:14.064Z,1.60
2022-11-22T11:26:44.716Z,1.50
2022-11-22T11:29:37.941Z,1.63
2022-11-22T11:32:09.446Z,3.30
2022-11-22T11:34:40.777Z,1.40
2022-11-22T11:37:19.465Z,1.17
2022-11-22T11:39:48.692Z,1.23
2022-11-22T11:42:26.259Z,1.10
2022-11-22T11:44:54.375Z,1.40
2022-11-22T11:47:35.366Z,1.80
2022-11-22T11:50:03.958Z,1.30
2022-11-22T11:52:32.051Z,1.47
2022-11-22T11:55:03.725Z,1.60
2022-11-22T11:57:34.937Z,1.70
2022-11-22T12:00:06.213Z,1.50
2022-11-22T12:02:40.254Z,2.00
2022-11-22T12:05:26.768Z,1.33
2022-11-22T12:07:54.695Z,1.10
2022-11-22T12:10:37.147Z,1.50
2022-11-22T12:13:11.180Z,1.47
2022-11-22T12:15:49.817Z,1.30
2022-11-22T12:18:31.916Z,1.40
2022-11-22T12:21:09.299Z,1.63
2022-11-22T12:23:50.570Z,1.30
2022-11-22T12:26:21.572Z,1.27
2022-11-22T12:28:50.810Z,1.43
2022-11-22T12:31:28.151Z,1.47
2022-11-22T12:34:00.449Z,1.20
2022-11-22T12:36:33.650Z,1.40
2022-11-22T12:39:04.211Z,1.23
2022-11-22T12:41:35.326Z,1.50
2022-11-22T12:44:06.119Z,1.30
2022-11-22T12:46:40.916Z,1.60
2022-11-22T12:49:16.266Z,1.10
2022-11-22T12:51:48.550Z,1.63
2022-11-22T12:54:21.042Z,1.30
2022-11-22T12:56:54.611Z,1.43
2022-11-22T12:59:30.808Z,1.37
2022-11-22T13:02:05.775Z,1.50
2022-11-22T13:04:42.508Z,1.30
2022-11-22T13:07:17.827Z,1.30
2022-11-22T13:09:52.278Z,1.30
2022-11-22T13:12:28.656Z,1.27
2022-11-22T13:14:57.120Z,1.33
2022-11-22T13:17:27.407Z,1.10
2022-11-22T13:20:00.367Z,1.00
2022-11-22T13:22:34.651Z,1.13
2022-11-22T13:25:26.221Z,1.43
2022-11-22T13:27:59.615Z,1.10
2022-11-22T13:30:29.797Z,1.10
2022-11-22T13:32:59.456Z,1.50
2022-11-22T13:35:31.474Z,1.20
2022-11-22T13:38:02.944Z,1.40
2022-11-22T13:40:34.714Z,1.17
2022-11-22T13:43:50.184Z,1.20
2022-11-22T13:46:51.699Z,1.20
2022-11-22T13:49:36.923Z,1.27
2022-11-22T13:52:22.462Z,1.27
2022-11-22T13:55:20.479Z,1.20
2022-11-22T13:57:48.332Z,0.93
2022-11-22T14:00:48.412Z,1.10
2022-11-22T14:03:28.719Z,1.10
2022-11-22T14:05:58.947Z,1.20
2022-11-22T14:08:30.902Z,1.40
2022-11-22T14:11:39.063Z,1.00
2022-11-22T14:14:17.039Z,1.13
2022-11-22T14:16:55.486Z,1.10
2022-11-22T14:19:37.419Z,1.20
2022-11-22T14:22:20.514Z,1.00
2022-11-22T14:25:05.167Z,1.37
2022-11-22T14:27:44.790Z,1.20
2022-11-22T14:30:20.017Z,1.47
2022-11-22T14:33:03.329Z,1.10
2022-11-22T14:35:37.055Z,1.20
2022-11-22T14:38:33.578Z,1.20
2022-11-22T14:41:55.113Z,1.37
2022-11-22T14:44:29.218Z,1.90
2022-11-22T14:47:04.914Z,1.70
2022-11-22T14:49:50.360Z,1.70
2022-11-22T14:52:23.044Z,1.40
2022-11-22T14:54:55.432Z,1.13
2022-11-22T14:57:26.429Z,1.03
2022-11-22T15:00:11.421Z,0.87
2022-11-22T15:03:03.456Z,0.83
2022-11-22T15:09:15.077Z,1.43
2022-11-22T15:09:16.793Z,1.30
2022-11-22T15:12:03.697Z,1.40
2022-11-22T15:57:49.115Z,1.30
2022-11-22T16:00:22.717Z,1.33
2022-11-22T16:02:53.109Z,1.47
2022-11-22T16:06:06.048Z,1.10
2022-11-22T16:08:16.868Z,1.20
2022-11-22T16:10:51.425Z,1.70
2022-11-22T16:13:34.793Z,1.40
2022-11-22T16:16:20.236Z,1.70
2022-11-22T16:18:50.383Z,1.80
2022-11-22T16:21:27.432Z,1.87
2022-11-22T16:24:12.622Z,1.60
2022-11-22T16:26:45.143Z,1.83
2022-11-22T16:29:26.523Z,1.60
2022-11-22T16:32:02.329Z,1.80
2022-11-22T16:34:30.608Z,2.00
2022-11-22T16:36:58.973Z,1.60
2022-11-22T16:39:27.115Z,2.10
2022-11-22T16:41:56.547Z,1.90
2022-11-22T16:44:24.951Z,2.47
2022-11-22T16:46:53.202Z,2.03
2022-11-22T16:49:22.806Z,1.87
2022-11-22T16:51:52.083Z,2.10
2022-11-22T16:54:21.541Z,2.57
2022-11-22T16:56:50.857Z,2.20
2022-11-22T16:59:20.264Z,2.20
2022-11-22T17:01:51.092Z,2.10
2022-11-22T17:04:23.993Z,2.13
2022-11-22T17:06:52.347Z,2.30
2022-11-22T17:09:21.130Z,2.40
2022-11-22T17:11:49.353Z,2.03
2022-11-22T17:14:18.602Z,2.10
2022-11-22T17:16:48.258Z,2.20
2022-11-22T17:19:45.520Z,2.00
2022-11-22T17:22:06.943Z,2.60
2022-11-22T17:24:35.217Z,2.07
2022-11-22T17:27:03.566Z,2.10
2022-11-22T17:32:22.721Z,2.33
2022-11-22T17:34:51.327Z,2.60
2022-11-22T17:37:19.376Z,2.23
2022-11-22T17:39:47.471Z,2.20
2022-11-22T17:42:18.231Z,1.90
2022-11-22T17:44:46.411Z,2.53
2022-11-22T17:47:14.603Z,2.30
2022-11-22T17:49:44.281Z,2.10
2022-11-22T17:52:12.060Z,2.03
2022-11-22T17:54:40.111Z,1.93
2022-11-22T17:57:08.115Z,1.57
2022-11-22T17:59:35.780Z,1.87
2022-11-22T18:02:04.980Z,1.90
2022-11-22T18:04:33.883Z,1.90
2022-11-22T18:07:03.434Z,1.70
2022-11-22T18:09:31.625Z,2.07
2022-11-22T18:11:59.645Z,2.90
2022-11-22T18:14:28.253Z,2.70
2022-11-22T18:16:55.992Z,2.00
2022-11-22T18:19:24.171Z,2.30
2022-11-22T18:21:51.956Z,2.27
2022-11-22T18:24:21.385Z,2.60
2022-11-22T18:26:49.709Z,2.30
2022-11-22T18:32:06.939Z,2.00
2022-11-22T18:34:35.535Z,2.47
2022-11-22T18:37:04.725Z,2.40
2022-11-22T18:39:36.498Z,2.10
2022-11-22T18:42:05.436Z,2.40
2022-11-22T18:44:33.300Z,2.37
2022-11-22T18:47:02.549Z,2.00
2022-11-22T18:49:31.026Z,1.70
2022-11-22T18:51:59.248Z,2.00
2022-11-22T18:54:27.329Z,1.77
2022-11-22T18:56:57.254Z,2.63
2022-11-22T18:59:25.508Z,2.17
2022-11-22T19:01:53.353Z,2.30
2022-11-22T19:04:21.199Z,2.10
2022-11-22T19:06:49.042Z,2.30
2022-11-22T19:09:16.813Z,1.93
2022-11-22T19:11:45.051Z,1.67
2022-11-22T19:14:15.695Z,1.67
2022-11-22T19:16:43.429Z,1.40
2022-11-22T19:19:12.756Z,1.30
2022-11-22T19:21:40.933Z,1.50
2022-11-22T19:24:09.226Z,1.53
2022-11-22T19:26:37.519Z,1.83
2022-11-22T19:29:05.561Z,1.60
2022-11-22T19:31:35.803Z,1.60
2022-11-22T19:34:03.928Z,1.73
2022-11-22T19:36:34.388Z,1.60
2022-11-22T19:39:03.983Z,1.70
2022-11-22T19:41:32.522Z,1.73
2022-11-22T19:44:02.311Z,1.60
2022-11-22T19:46:31.193Z,1.63
2022-11-22T19:49:02.549Z,1.73
2022-11-22T19:51:31.945Z,1.33
2022-11-22T19:54:02.386Z,1.40
2022-11-22T19:56:33.808Z,1.50
2022-11-22T19:59:03.226Z,1.30
2022-11-22T20:01:33.464Z,2.20
2022-11-22T20:04:05.554Z,1.83
2022-11-22T20:06:34.913Z,1.70
2022-11-22T20:09:04.203Z,1.37
2022-11-22T20:11:32.415Z,1.43
2022-11-22T20:14:00.538Z,1.80
2022-11-22T20:16:31.733Z,1.30
2022-11-22T20:19:01.150Z,1.40
2022-11-22T20:21:33.052Z,1.43
2022-11-22T20:24:02.337Z,1.47
2022-11-22T20:26:31.583Z,1.30
2022-11-22T20:29:00.872Z,1.27
2022-11-22T20:31:31.668Z,1.30
2022-11-22T20:34:01.188Z,1.27
2022-11-22T20:36:32.309Z,1.10
2022-11-22T20:39:05.384Z,1.30
2022-11-22T20:41:37.706Z,1.20
2022-11-22T20:44:06.402Z,1.20
2022-11-22T20:46:37.778Z,1.13
2022-11-22T20:49:06.524Z,1.20
2022-11-22T20:51:40.097Z,1.40
2022-11-22T20:54:08.589Z,1.50
2022-11-22T20:56:36.833Z,1.50
2022-11-22T20:59:04.778Z,1.40
2022-11-22T21:01:33.555Z,1.50
2022-11-22T21:04:01.799Z,2.00
2022-11-22T21:06:33.149Z,1.83
2022-11-22T21:09:03.059Z,2.30
2022-11-22T21:11:39.119Z,1.73
2022-11-22T21:14:07.834Z,1.40
2022-11-22T21:16:35.983Z,1.20
2022-11-22T21:19:05.603Z,1.10
2022-11-22T21:21:36.698Z,1.20
2022-11-22T21:24:07.399Z,1.10
2022-11-22T21:26:35.897Z,1.13
2022-11-22T21:29:06.028Z,1.00
2022-11-22T21:31:33.837Z,1.03
2022-11-22T21:34:03.051Z,1.23
2022-11-22T21:36:30.840Z,1.50
2022-11-22T21:38:58.776Z,1.97
2022-11-22T21:41:43.562Z,1.80
2022-11-22T21:44:12.426Z,1.70
2022-11-22T21:46:40.389Z,1.33
2022-11-22T21:49:08.468Z,1.20
2022-11-22T21:51:36.280Z,1.10
2022-11-22T21:54:05.724Z,1.00
2022-11-22T21:56:36.752Z,1.00
2022-11-22T21:59:04.752Z,1.00
2022-11-22T22:01:33.481Z,0.93
2022-11-22T22:04:01.682Z,1.10
2022-11-22T22:06:31.192Z,1.00
2022-11-22T22:08:59.118Z,1.00
2022-11-22T22:11:27.161Z,0.97
2022-11-22T22:13:58.395Z,0.90
2022-11-22T22:16:27.689Z,1.10
2022-11-22T22:18:55.812Z,1.00
2022-11-22T22:21:23.897Z,0.93
2022-11-22T22:23:51.848Z,1.20
2022-11-22T22:26:19.968Z,1.00
2022-11-22T22:28:48.064Z,1.03
2022-11-22T22:31:21.820Z,0.90
2022-11-22T22:33:51.406Z,1.07
2022-11-22T22:36:20.022Z,1.00
2022-11-22T22:38:48.585Z,1.20
2022-11-22T22:41:17.077Z,1.30
2022-11-22T22:43:47.802Z,1.90
2022-11-22T22:46:20.018Z,1.90
2022-11-22T22:48:48.539Z,1.53
2022-11-22T22:51:18.689Z,1.80
2022-11-22T22:53:47.587Z,1.80
2022-11-22T22:56:20.612Z,1.70
2022-11-22T22:58:48.590Z,1.33
2022-11-22T23:01:19.073Z,1.50
2022-11-22T23:03:49.087Z,1.87
2022-11-22T23:06:17.558Z,1.73
2022-11-22T23:08:49.798Z,1.93
2022-11-22T23:11:19.693Z,2.13
2022-11-22T23:13:47.705Z,2.00
2022-11-22T23:16:16.935Z,2.10
2022-11-22T23:18:46.447Z,2.10
2022-11-22T23:21:16.037Z,1.70
2022-11-22T23:23:44.118Z,1.73
2022-11-22T23:26:13.762Z,1.60
2022-11-22T23:28:41.887Z,1.60
2022-11-22T23:31:11.599Z,1.63
2022-11-22T23:33:39.778Z,1.70
2022-11-22T23:36:12.400Z,1.30
2022-11-22T23:38:40.769Z,1.40
2022-11-22T23:41:12.746Z,1.30
2022-11-22T23:43:41.066Z,1.40
2022-11-22T23:46:16.089Z,1.30
2022-11-22T23:48:45.605Z,1.20
2022-11-22T23:51:16.582Z,1.10
2022-11-22T23:53:44.728Z,1.17
2022-11-22T23:56:19.093Z,1.13
2022-11-22T23:58:49.851Z,1.17
